Park Hills, Kentucky
Current Conditions -  °F | °C
As of 8:38 PM on Wednesday 26 Nov 2014 (Local Time) from KI69 Reporting Station
Scattered Clouds Scattered Clouds  
Wind Chill: 34°   Ceiling: Unl
Heat Index: 34°   Visibility: 10mi
Dew Point: 28°   Wind: 3mph
Humidity: 81%   Direction: 20°NNE
Pressure: 30.04"   Gusts: NA
Location:  39.0659°N, 84.5309°W
Report Text: KI69 270138Z AUTO 02003KT 10SM SCT120 01/M02 A3004 RMK AO1
Loading
Personal Weather Stations






























Interactive Weather Map New forecast layout! Learn more

10-Day Weather Forecast

Advertisements
Track Severe Weather on mobile